89TA weather

Soaring Club of Houston Gliderport
Waller, Texas, United States

Public forecast

Using degrees Fahrenheit for public forecast. Weather courtesy of forecast.io.

METAR (pilot weather report)

Closest report is Brenham Municipal Airport, 21.4 nm (39.6 km) W. Retrieved 2019/07/18 01:35 UTC (6 minutes ago):

K11R 180135Z AUTO 17009G14KT 10SM CLR 32/23 A2998 RMK AO2 T03160233

TAF (pilot weather forecast)

Forecast is more than 12 hours old.

Closest forecast is David Wayne Hooks Memorial Airport, 22.7 nm (42.1 km) ESE. Retrieved 2017/02/07 12:51 UTC (2 years ago):

TAF KDWH 071148Z 0712/0812 20009G15KT P6SM SCT022 OVC030 TEMPO 0712/0715 BKN018 FM071500 23010KT P6SM BKN015 FM071900 25010KT P6SM SCT025 FM080100 22005KT P6SM SCT250 TEMPO 0807/0809 3SM BR BKN013 FM080900 VRB03KT 2SM BR OVC008